sensor_id;sensor_type;location;lat;lon;timestamp;temperature;humidity
19340;HTU21D;9804;52.350;6.684;2023-07-20T00:02:05;19.45;118.99
19340;HTU21D;9804;52.350;6.684;2023-07-20T00:04:32;19.53;118.99
19340;HTU21D;9804;52.350;6.684;2023-07-20T00:06:58;19.62;118.99
19340;HTU21D;9804;52.350;6.684;2023-07-20T00:09:24;19.41;118.99
19340;HTU21D;9804;52.350;6.684;2023-07-20T00:11:50;19.59;118.99
19340;HTU21D;9804;52.350;6.684;2023-07-20T00:14:16;19.24;118.99
19340;HTU21D;9804;52.350;6.684;2023-07-20T00:16:42;19.40;118.99
19340;HTU21D;9804;52.350;6.684;2023-07-20T00:19:07;19.27;118.99
19340;HTU21D;9804;52.350;6.684;2023-07-20T00:21:33;19.09;118.99
19340;HTU21D;9804;52.350;6.684;2023-07-20T00:23:58;19.23;118.99
19340;HTU21D;9804;52.350;6.684;2023-07-20T00:26:24;19.06;118.99
19340;HTU21D;9804;52.350;6.684;2023-07-20T00:28:50;19.11;118.99
19340;HTU21D;9804;52.350;6.684;2023-07-20T00:31:17;19.12;118.99
19340;HTU21D;9804;52.350;6.684;2023-07-20T00:33:42;19.16;118.99
19340;HTU21D;9804;52.350;6.684;2023-07-20T00:36:07;19.10;118.99
19340;HTU21D;9804;52.350;6.684;2023-07-20T00:38:33;18.84;118.99
19340;HTU21D;9804;52.350;6.684;2023-07-20T00:40:58;18.87;118.99
19340;HTU21D;9804;52.350;6.684;2023-07-20T00:43:23;19.00;118.99
19340;HTU21D;9804;52.350;6.684;2023-07-20T00:45:49;18.92;118.99
19340;HTU21D;9804;52.350;6.684;2023-07-20T00:48:14;18.79;118.99
19340;HTU21D;9804;52.350;6.684;2023-07-20T00:50:41;18.57;118.99
19340;HTU21D;9804;52.350;6.684;2023-07-20T00:53:07;18.84;118.99
19340;HTU21D;9804;52.350;6.684;2023-07-20T00:55:33;18.59;118.99
19340;HTU21D;9804;52.350;6.684;2023-07-20T00:57:59;18.74;118.99
19340;HTU21D;9804;52.350;6.684;2023-07-20T01:00:25;18.88;118.99
19340;HTU21D;9804;52.350;6.684;2023-07-20T01:02:51;18.94;118.99
19340;HTU21D;9804;52.350;6.684;2023-07-20T01:05:16;18.76;118.99
19340;HTU21D;9804;52.350;6.684;2023-07-20T01:07:49;18.85;118.99
19340;HTU21D;9804;52.350;6.684;2023-07-20T01:12:43;18.56;118.99
19340;HTU21D;9804;52.350;6.684;2023-07-20T01:15:09;18.67;118.99
19340;HTU21D;9804;52.350;6.684;2023-07-20T01:17:35;18.64;118.99
19340;HTU21D;9804;52.350;6.684;2023-07-20T01:20:01;18.62;118.99
19340;HTU21D;9804;52.350;6.684;2023-07-20T01:22:52;18.74;118.99
19340;HTU21D;9804;52.350;6.684;2023-07-20T01:26:08;18.68;118.99
19340;HTU21D;9804;52.350;6.684;2023-07-20T01:29:03;18.69;118.99
19340;HTU21D;9804;52.350;6.684;2023-07-20T01:31:34;18.62;118.99
19340;HTU21D;9804;52.350;6.684;2023-07-20T01:34:01;18.62;118.99
19340;HTU21D;9804;52.350;6.684;2023-07-20T01:36:35;18.57;118.99
19340;HTU21D;9804;52.350;6.684;2023-07-20T01:39:01;18.68;118.99
19340;HTU21D;9804;52.350;6.684;2023-07-20T01:41:27;18.82;118.99
19340;HTU21D;9804;52.350;6.684;2023-07-20T01:43:53;18.72;118.99
19340;HTU21D;9804;52.350;6.684;2023-07-20T01:46:18;18.72;118.99
19340;HTU21D;9804;52.350;6.684;2023-07-20T01:48:44;18.59;118.99
19340;HTU21D;9804;52.350;6.684;2023-07-20T01:51:09;18.63;118.99
19340;HTU21D;9804;52.350;6.684;2023-07-20T01:53:34;18.50;118.99
19340;HTU21D;9804;52.350;6.684;2023-07-20T01:56:00;18.58;118.99
19340;HTU21D;9804;52.350;6.684;2023-07-20T01:58:25;18.56;118.99
19340;HTU21D;9804;52.350;6.684;2023-07-20T02:00:51;18.69;118.99
19340;HTU21D;9804;52.350;6.684;2023-07-20T02:03:16;18.76;118.99
19340;HTU21D;9804;52.350;6.684;2023-07-20T02:05:45;18.79;118.99
19340;HTU21D;9804;52.350;6.684;2023-07-20T02:08:10;18.61;118.99
19340;HTU21D;9804;52.350;6.684;2023-07-20T02:10:36;18.47;118.99
19340;HTU21D;9804;52.350;6.684;2023-07-20T02:13:01;18.46;118.99
19340;HTU21D;9804;52.350;6.684;2023-07-20T02:15:27;18.24;118.99
19340;HTU21D;9804;52.350;6.684;2023-07-20T02:17:53;18.37;118.99
19340;HTU21D;9804;52.350;6.684;2023-07-20T02:20:18;18.43;118.99
19340;HTU21D;9804;52.350;6.684;2023-07-20T02:22:44;18.56;118.99
19340;HTU21D;9804;52.350;6.684;2023-07-20T02:25:09;18.48;118.99
19340;HTU21D;9804;52.350;6.684;2023-07-20T02:27:35;18.33;118.99
19340;HTU21D;9804;52.350;6.684;2023-07-20T02:30:01;18.40;118.99
19340;HTU21D;9804;52.350;6.684;2023-07-20T02:32:27;18.51;118.99
19340;HTU21D;9804;52.350;6.684;2023-07-20T02:34:53;18.52;118.99
19340;HTU21D;9804;52.350;6.684;2023-07-20T02:37:18;18.41;118.99
19340;HTU21D;9804;52.350;6.684;2023-07-20T02:39:44;18.33;118.99
19340;HTU21D;9804;52.350;6.684;2023-07-20T02:42:09;18.24;118.99
19340;HTU21D;9804;52.350;6.684;2023-07-20T02:44:35;18.35;118.99
19340;HTU21D;9804;52.350;6.684;2023-07-20T02:47:00;18.02;118.99
19340;HTU21D;9804;52.350;6.684;2023-07-20T02:49:26;18.03;118.99
19340;HTU21D;9804;52.350;6.684;2023-07-20T02:51:52;18.15;118.99
19340;HTU21D;9804;52.350;6.684;2023-07-20T02:54:17;18.08;118.99
19340;HTU21D;9804;52.350;6.684;2023-07-20T02:56:43;18.09;118.99
19340;HTU21D;9804;52.350;6.684;2023-07-20T02:59:08;18.07;118.99
19340;HTU21D;9804;52.350;6.684;2023-07-20T03:01:34;17.88;118.99
19340;HTU21D;9804;52.350;6.684;2023-07-20T03:03:59;17.83;118.99
19340;HTU21D;9804;52.350;6.684;2023-07-20T03:06:24;17.74;118.99
19340;HTU21D;9804;52.350;6.684;2023-07-20T03:08:50;17.68;118.99
19340;HTU21D;9804;52.350;6.684;2023-07-20T03:11:18;17.84;118.99
19340;HTU21D;9804;52.350;6.684;2023-07-20T03:13:44;17.83;118.99
19340;HTU21D;9804;52.350;6.684;2023-07-20T03:16:11;17.66;118.99
19340;HTU21D;9804;52.350;6.684;2023-07-20T03:18:38;17.61;118.99
19340;HTU21D;9804;52.350;6.684;2023-07-20T03:21:04;17.74;118.99
19340;HTU21D;9804;52.350;6.684;2023-07-20T03:23:30;17.70;118.99
19340;HTU21D;9804;52.350;6.684;2023-07-20T03:25:55;17.72;118.99
19340;HTU21D;9804;52.350;6.684;2023-07-20T03:28:20;17.68;118.99
19340;HTU21D;9804;52.350;6.684;2023-07-20T03:30:46;17.44;118.99
19340;HTU21D;9804;52.350;6.684;2023-07-20T03:33:11;17.61;118.99
19340;HTU21D;9804;52.350;6.684;2023-07-20T03:35:37;17.73;118.99
19340;HTU21D;9804;52.350;6.684;2023-07-20T03:38:02;17.56;118.99
19340;HTU21D;9804;52.350;6.684;2023-07-20T03:40:28;17.68;118.99
19340;HTU21D;9804;52.350;6.684;2023-07-20T03:42:53;17.67;118.99
19340;HTU21D;9804;52.350;6.684;2023-07-20T03:45:18;17.92;118.99
19340;HTU21D;9804;52.350;6.684;2023-07-20T03:47:44;17.90;118.99
19340;HTU21D;9804;52.350;6.684;2023-07-20T03:50:10;17.69;118.99
19340;HTU21D;9804;52.350;6.684;2023-07-20T03:52:35;17.56;118.99
19340;HTU21D;9804;52.350;6.684;2023-07-20T03:55:01;17.88;118.99
19340;HTU21D;9804;52.350;6.684;2023-07-20T03:57:26;17.50;118.99
19340;HTU21D;9804;52.350;6.684;2023-07-20T03:59:52;17.63;118.99
19340;HTU21D;9804;52.350;6.684;2023-07-20T04:02:18;17.54;118.99
19340;HTU21D;9804;52.350;6.684;2023-07-20T04:04:43;17.46;118.99
19340;HTU21D;9804;52.350;6.684;2023-07-20T04:07:09;17.06;118.99
19340;HTU21D;9804;52.350;6.684;2023-07-20T04:09:34;17.39;118.99
19340;HTU21D;9804;52.350;6.684;2023-07-20T04:12:00;17.15;118.99
19340;HTU21D;9804;52.350;6.684;2023-07-20T04:14:25;17.21;118.99
19340;HTU21D;9804;52.350;6.684;2023-07-20T04:16:50;17.22;118.99
19340;HTU21D;9804;52.350;6.684;2023-07-20T04:19:17;17.18;118.99
19340;HTU21D;9804;52.350;6.684;2023-07-20T04:21:43;17.25;118.99
19340;HTU21D;9804;52.350;6.684;2023-07-20T04:24:08;17.44;118.99
19340;HTU21D;9804;52.350;6.684;2023-07-20T04:26:34;17.41;118.99
19340;HTU21D;9804;52.350;6.684;2023-07-20T04:29:00;17.41;118.99
19340;HTU21D;9804;52.350;6.684;2023-07-20T04:31:26;17.64;118.99
19340;HTU21D;9804;52.350;6.684;2023-07-20T04:33:51;17.66;118.99
19340;HTU21D;9804;52.350;6.684;2023-07-20T04:36:17;17.53;118.99
19340;HTU21D;9804;52.350;6.684;2023-07-20T04:38:47;17.75;118.99
19340;HTU21D;9804;52.350;6.684;2023-07-20T04:41:12;17.81;118.99
19340;HTU21D;9804;52.350;6.684;2023-07-20T04:43:42;17.80;118.99
19340;HTU21D;9804;52.350;6.684;2023-07-20T04:46:11;17.63;118.99
19340;HTU21D;9804;52.350;6.684;2023-07-20T04:48:36;17.76;118.99
19340;HTU21D;9804;52.350;6.684;2023-07-20T04:51:02;17.62;118.99
19340;HTU21D;9804;52.350;6.684;2023-07-20T04:53:28;17.89;118.99
19340;HTU21D;9804;52.350;6.684;2023-07-20T04:55:53;18.20;118.99
19340;HTU21D;9804;52.350;6.684;2023-07-20T04:58:20;18.44;118.99
19340;HTU21D;9804;52.350;6.684;2023-07-20T05:00:47;18.35;118.99
19340;HTU21D;9804;52.350;6.684;2023-07-20T05:03:13;18.26;118.99
19340;HTU21D;9804;52.350;6.684;2023-07-20T05:05:38;18.08;118.99
19340;HTU21D;9804;52.350;6.684;2023-07-20T05:08:04;17.83;118.99
19340;HTU21D;9804;52.350;6.684;2023-07-20T05:10:29;18.27;118.99
19340;HTU21D;9804;52.350;6.684;2023-07-20T05:12:54;18.39;118.99
19340;HTU21D;9804;52.350;6.684;2023-07-20T05:15:20;18.15;118.99
19340;HTU21D;9804;52.350;6.684;2023-07-20T05:17:45;18.25;118.99
19340;HTU21D;9804;52.350;6.684;2023-07-20T05:20:12;18.04;118.99
19340;HTU21D;9804;52.350;6.684;2023-07-20T05:22:38;18.25;118.99
19340;HTU21D;9804;52.350;6.684;2023-07-20T05:25:09;18.41;118.99
19340;HTU21D;9804;52.350;6.684;2023-07-20T05:27:37;18.02;118.99
19340;HTU21D;9804;52.350;6.684;2023-07-20T05:30:02;18.33;118.99
19340;HTU21D;9804;52.350;6.684;2023-07-20T05:32:28;18.28;118.99
19340;HTU21D;9804;52.350;6.684;2023-07-20T05:34:54;18.12;118.99
19340;HTU21D;9804;52.350;6.684;2023-07-20T05:37:20;18.03;118.99
19340;HTU21D;9804;52.350;6.684;2023-07-20T05:39:45;17.92;118.99
19340;HTU21D;9804;52.350;6.684;2023-07-20T05:42:10;18.25;118.99
19340;HTU21D;9804;52.350;6.684;2023-07-20T05:44:36;18.40;118.99
19340;HTU21D;9804;52.350;6.684;2023-07-20T05:47:01;18.20;118.99
19340;HTU21D;9804;52.350;6.684;2023-07-20T05:49:28;18.57;117.21
19340;HTU21D;9804;52.350;6.684;2023-07-20T05:51:54;18.56;72.45
19340;HTU21D;9804;52.350;6.684;2023-07-20T05:54:20;18.69;42.53
19340;HTU21D;9804;52.350;6.684;2023-07-20T05:56:46;18.72;8.79
19340;HTU21D;9804;52.350;6.684;2023-07-20T05:59:11;18.26;102.86
19340;HTU21D;9804;52.350;6.684;2023-07-20T06:01:37;18.49;106.34
19340;HTU21D;9804;52.350;6.684;2023-07-20T06:04:02;18.64;32.38
19340;HTU21D;9804;52.350;6.684;2023-07-20T06:06:28;18.43;-6.00
19340;HTU21D;9804;52.350;6.684;2023-07-20T06:08:54;18.50;-6.00
19340;HTU21D;9804;52.350;6.684;2023-07-20T06:11:19;18.62;-6.00
19340;HTU21D;9804;52.350;6.684;2023-07-20T06:13:45;18.58;-6.00
19340;HTU21D;9804;52.350;6.684;2023-07-20T06:16:11;18.64;-6.00
19340;HTU21D;9804;52.350;6.684;2023-07-20T06:18:36;18.98;-6.00
19340;HTU21D;9804;52.350;6.684;2023-07-20T06:21:02;19.06;-6.00
19340;HTU21D;9804;52.350;6.684;2023-07-20T06:23:27;18.99;-6.00
19340;HTU21D;9804;52.350;6.684;2023-07-20T06:25:52;18.95;-6.00
19340;HTU21D;9804;52.350;6.684;2023-07-20T06:28:18;19.00;-6.00
19340;HTU21D;9804;52.350;6.684;2023-07-20T06:30:43;19.05;-6.00
19340;HTU21D;9804;52.350;6.684;2023-07-20T06:33:09;19.10;-6.00
19340;HTU21D;9804;52.350;6.684;2023-07-20T06:35:34;19.21;-6.00
19340;HTU21D;9804;52.350;6.684;2023-07-20T06:38:01;19.51;-6.00
19340;HTU21D;9804;52.350;6.684;2023-07-20T06:40:26;19.07;-6.00
19340;HTU21D;9804;52.350;6.684;2023-07-20T06:42:52;19.30;-6.00
19340;HTU21D;9804;52.350;6.684;2023-07-20T06:45:17;19.41;-6.00
19340;HTU21D;9804;52.350;6.684;2023-07-20T06:47:43;18.99;-6.00
19340;HTU21D;9804;52.350;6.684;2023-07-20T06:50:09;19.17;-6.00
19340;HTU21D;9804;52.350;6.684;2023-07-20T06:52:35;19.13;-6.00
19340;HTU21D;9804;52.350;6.684;2023-07-20T06:55:01;19.32;-6.00
19340;HTU21D;9804;52.350;6.684;2023-07-20T06:57:26;19.50;-6.00
19340;HTU21D;9804;52.350;6.684;2023-07-20T06:59:52;19.62;-6.00
19340;HTU21D;9804;52.350;6.684;2023-07-20T07:02:18;19.55;-6.00
19340;HTU21D;9804;52.350;6.684;2023-07-20T07:04:44;19.61;-6.00
19340;HTU21D;9804;52.350;6.684;2023-07-20T07:07:10;19.87;-6.00
19340;HTU21D;9804;52.350;6.684;2023-07-20T07:09:36;19.75;-6.00
19340;HTU21D;9804;52.350;6.684;2023-07-20T07:12:01;19.76;-6.00
19340;HTU21D;9804;52.350;6.684;2023-07-20T07:14:26;19.66;-6.00
19340;HTU21D;9804;52.350;6.684;2023-07-20T07:16:52;19.37;-6.00
19340;HTU21D;9804;52.350;6.684;2023-07-20T07:19:17;19.75;-6.00
19340;HTU21D;9804;52.350;6.684;2023-07-20T07:21:43;20.20;-6.00
19340;HTU21D;9804;52.350;6.684;2023-07-20T07:24:08;19.89;-6.00
19340;HTU21D;9804;52.350;6.684;2023-07-20T07:26:36;20.13;-6.00
19340;HTU21D;9804;52.350;6.684;2023-07-20T07:29:01;20.31;-6.00
19340;HTU21D;9804;52.350;6.684;2023-07-20T07:31:29;20.58;-6.00
19340;HTU21D;9804;52.350;6.684;2023-07-20T07:33:54;20.71;-6.00
19340;HTU21D;9804;52.350;6.684;2023-07-20T07:36:20;20.60;-6.00
19340;HTU21D;9804;52.350;6.684;2023-07-20T07:38:45;20.36;-6.00
19340;HTU21D;9804;52.350;6.684;2023-07-20T07:41:10;20.37;-6.00
19340;HTU21D;9804;52.350;6.684;2023-07-20T07:43:36;20.51;-6.00
19340;HTU21D;9804;52.350;6.684;2023-07-20T07:46:01;20.30;-6.00
19340;HTU21D;9804;52.350;6.684;2023-07-20T07:48:27;20.62;-6.00
19340;HTU21D;9804;52.350;6.684;2023-07-20T07:50:53;21.13;-6.00
19340;HTU21D;9804;52.350;6.684;2023-07-20T07:53:19;21.00;-6.00
19340;HTU21D;9804;52.350;6.684;2023-07-20T07:55:46;20.78;-6.00
19340;HTU21D;9804;52.350;6.684;2023-07-20T07:58:12;21.19;-6.00
19340;HTU21D;9804;52.350;6.684;2023-07-20T08:00:38;21.31;-6.00
19340;HTU21D;9804;52.350;6.684;2023-07-20T08:03:06;21.52;-6.00
19340;HTU21D;9804;52.350;6.684;2023-07-20T08:05:33;21.39;-6.00
19340;HTU21D;9804;52.350;6.684;2023-07-20T08:07:58;21.25;-6.00
19340;HTU21D;9804;52.350;6.684;2023-07-20T08:10:23;21.44;-6.00
19340;HTU21D;9804;52.350;6.684;2023-07-20T08:12:49;21.50;-6.00
19340;HTU21D;9804;52.350;6.684;2023-07-20T08:15:14;21.49;-6.00
19340;HTU21D;9804;52.350;6.684;2023-07-20T08:17:41;21.59;-6.00
19340;HTU21D;9804;52.350;6.684;2023-07-20T08:20:09;21.60;-6.00
19340;HTU21D;9804;52.350;6.684;2023-07-20T08:22:37;21.99;-6.00
19340;HTU21D;9804;52.350;6.684;2023-07-20T08:25:03;21.64;-6.00
19340;HTU21D;9804;52.350;6.684;2023-07-20T08:27:28;21.08;-6.00
19340;HTU21D;9804;52.350;6.684;2023-07-20T08:29:54;21.44;-6.00
19340;HTU21D;9804;52.350;6.684;2023-07-20T08:32:19;21.23;-6.00
19340;HTU21D;9804;52.350;6.684;2023-07-20T08:34:45;21.21;-6.00
19340;HTU21D;9804;52.350;6.684;2023-07-20T08:37:10;21.34;-6.00
19340;HTU21D;9804;52.350;6.684;2023-07-20T08:39:36;21.57;-6.00
19340;HTU21D;9804;52.350;6.684;2023-07-20T08:42:01;22.06;-6.00
19340;HTU21D;9804;52.350;6.684;2023-07-20T08:44:32;22.39;-6.00
19340;HTU21D;9804;52.350;6.684;2023-07-20T08:47:00;22.61;-6.00
19340;HTU21D;9804;52.350;6.684;2023-07-20T08:49:27;22.29;-6.00
19340;HTU21D;9804;52.350;6.684;2023-07-20T08:52:01;23.00;-6.00
19340;HTU21D;9804;52.350;6.684;2023-07-20T08:54:30;22.35;-6.00
19340;HTU21D;9804;52.350;6.684;2023-07-20T08:57:02;22.05;-6.00
19340;HTU21D;9804;52.350;6.684;2023-07-20T08:59:28;21.35;-6.00
19340;HTU21D;9804;52.350;6.684;2023-07-20T09:01:55;20.81;-6.00
19340;HTU21D;9804;52.350;6.684;2023-07-20T09:04:22;21.59;-6.00
19340;HTU21D;9804;52.350;6.684;2023-07-20T09:06:49;21.70;-6.00
19340;HTU21D;9804;52.350;6.684;2023-07-20T09:09:15;21.83;-6.00
19340;HTU21D;9804;52.350;6.684;2023-07-20T09:11:40;22.33;-6.00
19340;HTU21D;9804;52.350;6.684;2023-07-20T09:14:07;22.49;-6.00
19340;HTU21D;9804;52.350;6.684;2023-07-20T09:16:47;22.60;-6.00
19340;HTU21D;9804;52.350;6.684;2023-07-20T09:19:15;22.65;-6.00
19340;HTU21D;9804;52.350;6.684;2023-07-20T09:21:40;22.90;-6.00
19340;HTU21D;9804;52.350;6.684;2023-07-20T09:24:06;23.18;-6.00
19340;HTU21D;9804;52.350;6.684;2023-07-20T09:26:40;23.65;-6.00
19340;HTU21D;9804;52.350;6.684;2023-07-20T09:29:07;24.15;-6.00
19340;HTU21D;9804;52.350;6.684;2023-07-20T09:31:32;23.67;-6.00
19340;HTU21D;9804;52.350;6.684;2023-07-20T09:33:58;23.13;-6.00
19340;HTU21D;9804;52.350;6.684;2023-07-20T09:36:23;23.68;-6.00
19340;HTU21D;9804;52.350;6.684;2023-07-20T09:38:48;23.58;-6.00
19340;HTU21D;9804;52.350;6.684;2023-07-20T09:41:14;24.12;-6.00
19340;HTU21D;9804;52.350;6.684;2023-07-20T09:43:45;23.56;-6.00
19340;HTU21D;9804;52.350;6.684;2023-07-20T09:46:10;23.20;-6.00
19340;HTU21D;9804;52.350;6.684;2023-07-20T09:48:36;23.08;-6.00
19340;HTU21D;9804;52.350;6.684;2023-07-20T09:51:02;23.71;-6.00
19340;HTU21D;9804;52.350;6.684;2023-07-20T09:53:28;24.42;-6.00
19340;HTU21D;9804;52.350;6.684;2023-07-20T09:55:55;24.04;-6.00
19340;HTU21D;9804;52.350;6.684;2023-07-20T09:58:21;23.41;-6.00
19340;HTU21D;9804;52.350;6.684;2023-07-20T10:00:48;24.29;-6.00
19340;HTU21D;9804;52.350;6.684;2023-07-20T10:03:19;24.70;-6.00
19340;HTU21D;9804;52.350;6.684;2023-07-20T10:05:54;24.24;-6.00
19340;HTU21D;9804;52.350;6.684;2023-07-20T10:08:26;23.87;-6.00
19340;HTU21D;9804;52.350;6.684;2023-07-20T10:10:53;24.94;-6.00
19340;HTU21D;9804;52.350;6.684;2023-07-20T10:13:26;25.29;-6.00
19340;HTU21D;9804;52.350;6.684;2023-07-20T10:16:01;25.89;-6.00
19340;HTU21D;9804;52.350;6.684;2023-07-20T10:18:31;25.19;-6.00
19340;HTU21D;9804;52.350;6.684;2023-07-20T10:21:00;26.18;-6.00
19340;HTU21D;9804;52.350;6.684;2023-07-20T10:23:28;26.58;-6.00
19340;HTU21D;9804;52.350;6.684;2023-07-20T10:25:54;26.02;-6.00
19340;HTU21D;9804;52.350;6.684;2023-07-20T10:28:20;25.89;-6.00
19340;HTU21D;9804;52.350;6.684;2023-07-20T10:30:46;24.57;-6.00
19340;HTU21D;9804;52.350;6.684;2023-07-20T10:33:11;25.42;-6.00
19340;HTU21D;9804;52.350;6.684;2023-07-20T10:38:39;24.05;-6.00
19340;HTU21D;9804;52.350;6.684;2023-07-20T10:41:22;23.97;-6.00
19340;HTU21D;9804;52.350;6.684;2023-07-20T10:43:51;23.52;-6.00
19340;HTU21D;9804;52.350;6.684;2023-07-20T10:46:42;23.86;-6.00
19340;HTU21D;9804;52.350;6.684;2023-07-20T10:49:09;23.97;-6.00
19340;HTU21D;9804;52.350;6.684;2023-07-20T10:51:43;22.96;-6.00
19340;HTU21D;9804;52.350;6.684;2023-07-20T10:57:21;22.79;-6.00
19340;HTU21D;9804;52.350;6.684;2023-07-20T10:59:40;22.52;-6.00
19340;HTU21D;9804;52.350;6.684;2023-07-20T11:02:07;22.07;-6.00
19340;HTU21D;9804;52.350;6.684;2023-07-20T11:04:39;21.99;-6.00
19340;HTU21D;9804;52.350;6.684;2023-07-20T11:07:05;21.63;-6.00
19340;HTU21D;9804;52.350;6.684;2023-07-20T11:09:34;21.60;-6.00
19340;HTU21D;9804;52.350;6.684;2023-07-20T11:12:13;21.19;-6.00
19340;HTU21D;9804;52.350;6.684;2023-07-20T11:14:54;21.57;-6.00
19340;HTU21D;9804;52.350;6.684;2023-07-20T11:17:19;21.85;-6.00
19340;HTU21D;9804;52.350;6.684;2023-07-20T11:19:56;22.20;-6.00
19340;HTU21D;9804;52.350;6.684;2023-07-20T11:22:22;22.20;-6.00
19340;HTU21D;9804;52.350;6.684;2023-07-20T11:24:47;22.58;-6.00
19340;HTU21D;9804;52.350;6.684;2023-07-20T11:27:14;22.84;-6.00
19340;HTU21D;9804;52.350;6.684;2023-07-20T11:29:40;23.30;-6.00
19340;HTU21D;9804;52.350;6.684;2023-07-20T11:32:06;23.39;-6.00
19340;HTU21D;9804;52.350;6.684;2023-07-20T11:34:32;23.28;-6.00
19340;HTU21D;9804;52.350;6.684;2023-07-20T11:36:58;23.10;-6.00
19340;HTU21D;9804;52.350;6.684;2023-07-20T11:39:24;23.10;-6.00
19340;HTU21D;9804;52.350;6.684;2023-07-20T11:41:55;23.11;-6.00
19340;HTU21D;9804;52.350;6.684;2023-07-20T11:44:22;23.11;-6.00
19340;HTU21D;9804;52.350;6.684;2023-07-20T11:47:11;23.45;-6.00
19340;HTU21D;9804;52.350;6.684;2023-07-20T11:49:43;23.29;-6.00
19340;HTU21D;9804;52.350;6.684;2023-07-20T11:52:18;23.27;-6.00
19340;HTU21D;9804;52.350;6.684;2023-07-20T11:54:45;23.77;-6.00
19340;HTU21D;9804;52.350;6.684;2023-07-20T11:57:17;24.25;-6.00
19340;HTU21D;9804;52.350;6.684;2023-07-20T12:00:01;24.45;-6.00
19340;HTU21D;9804;52.350;6.684;2023-07-20T12:02:29;24.57;-6.00
19340;HTU21D;9804;52.350;6.684;2023-07-20T12:04:55;24.39;-6.00
19340;HTU21D;9804;52.350;6.684;2023-07-20T12:07:21;24.02;-6.00
19340;HTU21D;9804;52.350;6.684;2023-07-20T12:10:09;24.61;-6.00
19340;HTU21D;9804;52.350;6.684;2023-07-20T12:12:43;24.66;-6.00
19340;HTU21D;9804;52.350;6.684;2023-07-20T12:15:26;24.94;-6.00
19340;HTU21D;9804;52.350;6.684;2023-07-20T12:17:56;25.31;-6.00
19340;HTU21D;9804;52.350;6.684;2023-07-20T12:20:35;25.07;-6.00
19340;HTU21D;9804;52.350;6.684;2023-07-20T12:23:03;25.08;-6.00
19340;HTU21D;9804;52.350;6.684;2023-07-20T12:25:36;25.42;-6.00
19340;HTU21D;9804;52.350;6.684;2023-07-20T12:28:04;25.65;-6.00
19340;HTU21D;9804;52.350;6.684;2023-07-20T12:30:29;25.51;-6.00
19340;HTU21D;9804;52.350;6.684;2023-07-20T12:32:55;25.51;-6.00
19340;HTU21D;9804;52.350;6.684;2023-07-20T12:35:20;25.88;-6.00
19340;HTU21D;9804;52.350;6.684;2023-07-20T12:37:46;26.21;-6.00
19340;HTU21D;9804;52.350;6.684;2023-07-20T12:40:14;26.04;-6.00
19340;HTU21D;9804;52.350;6.684;2023-07-20T12:42:40;25.75;-6.00
19340;HTU21D;9804;52.350;6.684;2023-07-20T12:45:05;25.51;-6.00
19340;HTU21D;9804;52.350;6.684;2023-07-20T12:47:31;25.95;-6.00
19340;HTU21D;9804;52.350;6.684;2023-07-20T12:49:56;25.79;-6.00
19340;HTU21D;9804;52.350;6.684;2023-07-20T12:52:22;26.13;-6.00
19340;HTU21D;9804;52.350;6.684;2023-07-20T12:54:47;26.09;-6.00
19340;HTU21D;9804;52.350;6.684;2023-07-20T12:57:13;26.66;-6.00
19340;HTU21D;9804;52.350;6.684;2023-07-20T12:59:38;26.81;-6.00
19340;HTU21D;9804;52.350;6.684;2023-07-20T13:02:03;26.86;-6.00
19340;HTU21D;9804;52.350;6.684;2023-07-20T13:04:29;26.40;-6.00
19340;HTU21D;9804;52.350;6.684;2023-07-20T13:06:55;26.25;-6.00
19340;HTU21D;9804;52.350;6.684;2023-07-20T13:09:20;26.06;-6.00
19340;HTU21D;9804;52.350;6.684;2023-07-20T13:11:46;26.06;-6.00
19340;HTU21D;9804;52.350;6.684;2023-07-20T13:14:11;26.45;-6.00
19340;HTU21D;9804;52.350;6.684;2023-07-20T13:16:37;26.43;-6.00
19340;HTU21D;9804;52.350;6.684;2023-07-20T13:19:02;26.31;-6.00
19340;HTU21D;9804;52.350;6.684;2023-07-20T13:21:27;26.01;-6.00
19340;HTU21D;9804;52.350;6.684;2023-07-20T13:23:53;25.65;-6.00
19340;HTU21D;9804;52.350;6.684;2023-07-20T13:26:18;25.99;-6.00
19340;HTU21D;9804;52.350;6.684;2023-07-20T13:28:44;25.65;-6.00
19340;HTU21D;9804;52.350;6.684;2023-07-20T13:31:09;25.82;-6.00
19340;HTU21D;9804;52.350;6.684;2023-07-20T13:33:36;25.72;-6.00
19340;HTU21D;9804;52.350;6.684;2023-07-20T13:36:01;25.42;-6.00
19340;HTU21D;9804;52.350;6.684;2023-07-20T13:38:27;25.30;-6.00
19340;HTU21D;9804;52.350;6.684;2023-07-20T13:40:52;25.78;-6.00
19340;HTU21D;9804;52.350;6.684;2023-07-20T13:43:18;25.45;-6.00
19340;HTU21D;9804;52.350;6.684;2023-07-20T13:45:43;25.69;-6.00
19340;HTU21D;9804;52.350;6.684;2023-07-20T13:48:08;25.76;-6.00
19340;HTU21D;9804;52.350;6.684;2023-07-20T13:50:34;25.52;-6.00
19340;HTU21D;9804;52.350;6.684;2023-07-20T13:52:59;24.95;-6.00
19340;HTU21D;9804;52.350;6.684;2023-07-20T13:55:27;25.66;-6.00
19340;HTU21D;9804;52.350;6.684;2023-07-20T13:57:53;25.82;-6.00
19340;HTU21D;9804;52.350;6.684;2023-07-20T14:00:18;25.24;-6.00
19340;HTU21D;9804;52.350;6.684;2023-07-20T14:02:44;25.51;-6.00
19340;HTU21D;9804;52.350;6.684;2023-07-20T14:05:09;25.16;-6.00
19340;HTU21D;9804;52.350;6.684;2023-07-20T14:07:35;25.53;-6.00
19340;HTU21D;9804;52.350;6.684;2023-07-20T14:10:01;24.61;-6.00
19340;HTU21D;9804;52.350;6.684;2023-07-20T14:12:26;25.56;-6.00
19340;HTU21D;9804;52.350;6.684;2023-07-20T14:14:54;25.49;-6.00
19340;HTU21D;9804;52.350;6.684;2023-07-20T14:17:19;26.06;-6.00
19340;HTU21D;9804;52.350;6.684;2023-07-20T14:19:44;26.66;-6.00
19340;HTU21D;9804;52.350;6.684;2023-07-20T14:22:10;27.28;-6.00
19340;HTU21D;9804;52.350;6.684;2023-07-20T14:24:35;27.24;-6.00
19340;HTU21D;9804;52.350;6.684;2023-07-20T14:27:01;27.51;-6.00
19340;HTU21D;9804;52.350;6.684;2023-07-20T14:29:26;27.53;-6.00
19340;HTU21D;9804;52.350;6.684;2023-07-20T14:31:52;27.61;-6.00
19340;HTU21D;9804;52.350;6.684;2023-07-20T14:34:17;28.08;-6.00
19340;HTU21D;9804;52.350;6.684;2023-07-20T14:36:44;26.69;-6.00
19340;HTU21D;9804;52.350;6.684;2023-07-20T14:39:09;27.17;-6.00
19340;HTU21D;9804;52.350;6.684;2023-07-20T14:41:35;26.30;-6.00
19340;HTU21D;9804;52.350;6.684;2023-07-20T14:44:00;26.22;-6.00
19340;HTU21D;9804;52.350;6.684;2023-07-20T14:46:25;26.67;-6.00
19340;HTU21D;9804;52.350;6.684;2023-07-20T14:48:51;26.86;-6.00
19340;HTU21D;9804;52.350;6.684;2023-07-20T14:51:17;26.85;-6.00
19340;HTU21D;9804;52.350;6.684;2023-07-20T14:53:42;26.66;-6.00
19340;HTU21D;9804;52.350;6.684;2023-07-20T14:56:08;26.80;-6.00
19340;HTU21D;9804;52.350;6.684;2023-07-20T14:58:33;26.98;-6.00
19340;HTU21D;9804;52.350;6.684;2023-07-20T15:00:59;27.00;-6.00
19340;HTU21D;9804;52.350;6.684;2023-07-20T15:03:24;26.79;-6.00
19340;HTU21D;9804;52.350;6.684;2023-07-20T15:05:49;26.33;-6.00
19340;HTU21D;9804;52.350;6.684;2023-07-20T15:08:17;26.90;-6.00
19340;HTU21D;9804;52.350;6.684;2023-07-20T15:10:44;27.60;-6.00
19340;HTU21D;9804;52.350;6.684;2023-07-20T15:13:11;27.45;-6.00
19340;HTU21D;9804;52.350;6.684;2023-07-20T15:15:36;26.78;-6.00
19340;HTU21D;9804;52.350;6.684;2023-07-20T15:18:01;26.63;-6.00
19340;HTU21D;9804;52.350;6.684;2023-07-20T15:20:27;26.95;-6.00
19340;HTU21D;9804;52.350;6.684;2023-07-20T15:22:53;27.04;-6.00
19340;HTU21D;9804;52.350;6.684;2023-07-20T15:25:18;27.35;-6.00
19340;HTU21D;9804;52.350;6.684;2023-07-20T15:27:43;25.80;-6.00
19340;HTU21D;9804;52.350;6.684;2023-07-20T15:30:09;26.32;-6.00
19340;HTU21D;9804;52.350;6.684;2023-07-20T15:32:34;27.21;-6.00